CheckWX is a tool to help pilots better visualize weather data.  It is not intended as a substitute for an official pre-flight weather briefing.

04:53:21 UTC

4V0 METAR
Rangely Airport
Rangely, Colorado, USA
Current

18 mins ago

K4V0 260435Z AUTO 23003KT 10SM CLR 23/01 A3001 RMK AO2 T02330007
Observed
Aug-26 @ 04:35 UTC
Wind
  • 230° at 3 KTS
Visibility
10 SM
Flight Rules
VFR
Cloud Levels
  • Clear skies
Temperature
23°C / 73°F
Dewpoint
C / 34°F
Humidity
23%
Altimeter
30.01" Hg
Pressure
1016.22 hPa
Previous

38 mins ago

K4V0 260415Z AUTO 12003KT 10SM CLR 22/01 A3001 RMK AO2 T02170008
Observed
Aug-26 @ 04:15 UTC
Wind
  • 120° at 3 KTS
Visibility
10 SM
Flight Rules
VFR
Cloud Levels
  • Clear skies
Temperature
22°C / 72°F
Dewpoint
C / 34°F
Humidity
25%
Altimeter
30.01" Hg
Pressure
1016.22 hPa
Previous

58 mins ago

K4V0 260355Z AUTO 00000KT 10SM CLR 23/02 A3001 RMK AO2 T02320021
Observed
Aug-26 @ 03:55 UTC
Visibility
10 SM
Flight Rules
VFR
Cloud Levels
  • Clear skies
Temperature
23°C / 73°F
Dewpoint
C / 36°F
Humidity
25%
Altimeter
30.01" Hg
Pressure
1016.22 hPa